Aérodrome :
LOGIN :

S'inscrire | Disclaimer

   EN    FR    IT 

 










Légende :    VFR   VFR Marginal   IFR   IFR Intensif   IFR Très Intensif
Visi : 
Plafond : 
>= 8 km
>= 3000ft
5 à 8 km
1000 à 3000 ft
1500m à 5 km
500 à 1000 ft
800 à 1500m
200 à 500 ft
< 800m
< 200 ft
Symboles :   Orages  Brouillard  Fortes neiges  Fortes précipitations  Vent > 20 kt
SIGMETs :   Divers  Orages  Givrage  Turbulence  Onde Orograph.  Cendres Volcan.






- Altitude de l'aérodrome : 909 ft
- Code IATA : KSF


EDVK - Kassel Calden

DERNIER METAR :
  • 282220Z AUTO 15003KT 5000 // FEW005/// BKN010/// 05/04 Q1013

METARs EXPIRÉS :
  • 282150Z AUTO 13003KT 5000 // FEW006/// BKN012/// 05/04 Q1013
  • 282120Z AUTO 15003KT 5000 // FEW007/// BKN012/// 05/04 Q1013
  • 282050Z AUTO 15004KT 4700 // SCT005/// OVC008/// 05/04 Q1013
  • 282020Z AUTO 14005KT 9999 // SCT007/// OVC010/// 05/04 Q1013
  • 281950Z AUTO 15004KT 9999 // SCT009/// OVC012/// 06/03 Q1012

TAF TAF EDVK
Valide du 28 à 18h jusqu'au 29 à 03h UTC


281700Z 2818/2903 14004KT 9999 BKN020
TEMPO 2818/2903 3500 -RADZ BR BKN008
PROB40
TEMPO 2823/2903 1400 RADZ BR BKN003



MET'MAP, la Météo Aéronautique d'un coup d'oeil ! - Copyright ORBIFLY Décembre 2007 - Disclaimer

ORBIFLY MET'MAP TEAM :

Programmation & Développement : Alexandra Zaïnal
Sur une idée originale de : Baudouin d'Aumeries
Soutien technique & logistique : Manuel Goepfert
Assistance : Marc-Olivier Méhu




SOURCES & CREDITS :

   NOAA